Site contains unofficial IBTrACS data. Visit the IBTrACS Website to access archived data.

1861 NOT_NAMED (1861021S13086)


IBTrACS version v04r00. Visit IBTrACS website for data access.
Please direct all questions to the IBTrACS Q and A forum

Storm track - Intensity - Wind Radii - Intensity Data - Source Data - All data

Summary Information

Storm ID 1861021S13086
Start Jan 21 06Z
End Jan 28 06Z
ATCF IDs
Track status Best track data.

Storm track plot

Map of storm track

Intensity plots

No Intensity information for this storm


Radial wind information

No radial wind information for this storm


Position and Intensity Table

BASIN ISO_TIME_________ NATURE LAT LON
degrees north degrees east
SI 1861-01-21 06:00:00 NR -13.10 86.10
SI 09:00:00 NR -13.09 86.19
SI 12:00:00 NR -13.08 86.27
SI 15:00:00 NR -13.08 86.32
SI 18:00:00 NR -13.09 86.34
SI 21:00:00 NR -13.11 86.30
SI 1861-01-22 00:00:00 NR -13.15 86.21
SI 03:00:00 NR -13.21 86.05
SI 06:00:00 NR -13.30 85.80
SI 09:00:00 NR -13.41 85.46
SI 12:00:00 NR -13.54 85.04
SI 15:00:00 NR -13.69 84.57
SI 18:00:00 NR -13.85 84.07
SI 21:00:00 NR -14.02 83.54
SI 1861-01-23 00:00:00 NR -14.18 83.03
SI 03:00:00 NR -14.35 82.54
SI 06:00:00 NR -14.50 82.10
SI 09:00:00 NR -14.59 81.82
SI 12:00:00 NR -14.68 81.60
SI 15:00:00 NR -14.76 81.39
SI 18:00:00 NR -14.85 81.21
SI 21:00:00 NR -14.95 81.02
SI 1861-01-24 00:00:00 NR -15.07 80.82
SI 03:00:00 NR -15.22 80.58
SI 06:00:00 NR -15.40 80.30
SI 09:00:00 NR -15.60 79.94
SI 12:00:00 NR -15.84 79.54
SI 15:00:00 NR -16.10 79.11
SI 18:00:00 NR -16.39 78.63
SI 21:00:00 NR -16.72 78.12
SI 1861-01-25 00:00:00 NR -17.08 77.58
SI 03:00:00 NR -17.47 77.01
SI 06:00:00 NR -17.90 76.40
SI 09:00:00 NR -18.42 75.69
SI 12:00:00 NR -18.99 74.94
SI 15:00:00 NR -19.58 74.15
SI 18:00:00 NR -20.18 73.37
SI 21:00:00 NR -20.76 72.60
SI 1861-01-26 00:00:00 NR -21.30 71.88
SI 03:00:00 NR -21.79 71.24
SI 06:00:00 NR -22.20 70.70
SI 09:00:00 NR -22.48 70.33
SI 12:00:00 NR -22.69 70.07
SI 15:00:00 NR -22.85 69.88
SI 18:00:00 NR -22.96 69.76
SI 21:00:00 NR -23.04 69.69
SI 1861-01-27 00:00:00 NR -23.10 69.65
SI 03:00:00 NR -23.15 69.63
SI 06:00:00 NR -23.20 69.60
SI 09:00:00 NR -23.26 69.56
SI 12:00:00 NR -23.33 69.49
SI 15:00:00 NR -23.41 69.42
SI 18:00:00 NR -23.50 69.33
SI 21:00:00 NR -23.60 69.23
SI 1861-01-28 00:00:00 NR -23.69 69.13
SI 03:00:00 NR -23.80 69.01
SI 06:00:00 NR -23.90 68.90

Source Information

Agency Information
USA
TOKYO
CMA
HKO
NEWDELHI
REUNION WMO-Best-Tracks.txt:Line=328:xxxx861049
BOM
NADI
WELLINGTON
DS824
TD9636
TD9635
NEUMANN
MLC

All available IBTrACS Data

SEASON BASIN SUBBASIN ISO_TIME_________ NATURE LAT LON WMO AGENCY DIST2LAND LANDFALL IFLAG USA SSHS REUNION LAT REUNION LON REUNION TYPE REUNION TNUM STORM SPEED STORM DIR
Year degrees north degrees east km km 1 degrees north degrees east 1 kts degrees
1861 SI MM 1861-01-21 06:00:00 NR -13.10 86.10 1902 1894 _____O________ -1 -13.10 86.10 99 9.90 2 83
1861 SI MM 09:00:00 NR -13.09 86.19 1894 1886 _____P________ -1 -13.09 86.19 99 2 83
1861 SI MM 12:00:00 NR -13.08 86.27 1886 1886 _____P________ -1 -13.08 86.27 99 1 86
1861 SI MM 15:00:00 NR -13.08 86.32 1886 1886 _____P________ -1 -13.08 86.32 99 1 97
1861 SI MM 18:00:00 NR -13.09 86.34 1886 1886 _____P________ -1 -13.09 86.34 99 0 214
1861 SI MM 21:00:00 NR -13.11 86.30 1886 1886 _____P________ -1 -13.11 86.30 99 1 242
1861 SI MM 1861-01-22 00:00:00 NR -13.15 86.21 1901 1901 _____P________ -1 -13.15 86.21 99 3 248
1861 SI MM 03:00:00 NR -13.21 86.05 1918 1918 _____P________ -1 -13.21 86.05 99 4 250
1861 SI MM 06:00:00 NR -13.30 85.80 1941 1941 _____O________ -1 -13.30 85.80 99 9.90 6 251
1861 SI MM 09:00:00 NR -13.41 85.46 1973 1973 _____P________ -1 -13.41 85.46 99 8 252
1861 SI MM 12:00:00 NR -13.54 85.04 2022 2022 _____P________ -1 -13.54 85.04 99 9 252
1861 SI MM 15:00:00 NR -13.69 84.57 2069 2069 _____P________ -1 -13.69 84.57 99 10 252
1861 SI MM 18:00:00 NR -13.85 84.07 2126 2126 _____P________ -1 -13.85 84.07 99 11 252
1861 SI MM 21:00:00 NR -14.02 83.54 2183 2183 _____P________ -1 -14.02 83.54 99 11 252
1861 SI MM 1861-01-23 00:00:00 NR -14.18 83.03 2240 2240 _____P________ -1 -14.18 83.03 99 10 251
1861 SI MM 03:00:00 NR -14.35 82.54 2272 2272 _____P________ -1 -14.35 82.54 99 10 251
1861 SI MM 06:00:00 NR -14.50 82.10 2291 2290 _____O________ -1 -14.50 82.10 99 9.90 7 250
1861 SI MM 09:00:00 NR -14.59 81.82 2300 2299 _____P________ -1 -14.59 81.82 99 5 250
1861 SI MM 12:00:00 NR -14.68 81.60 2310 2309 _____P________ -1 -14.68 81.60 99 4 248
1861 SI MM 15:00:00 NR -14.76 81.39 2320 2319 _____P________ -1 -14.76 81.39 99 4 246
1861 SI MM 18:00:00 NR -14.85 81.21 2319 2319 _____P________ -1 -14.85 81.21 99 4 243
1861 SI MM 21:00:00 NR -14.95 81.02 2330 2330 _____P________ -1 -14.95 81.02 99 4 240
1861 SI MM 1861-01-24 00:00:00 NR -15.07 80.82 2352 2352 _____P________ -1 -15.07 80.82 99 5 238
1861 SI MM 03:00:00 NR -15.22 80.58 2363 2363 _____P________ -1 -15.22 80.58 99 6 236
1861 SI MM 06:00:00 NR -15.40 80.30 2386 2386 _____O________ -1 -15.40 80.30 99 9.90 7 238
1861 SI MM 09:00:00 NR -15.60 79.94 2394 2357 _____P________ -1 -15.60 79.94 99 9 239
1861 SI MM 12:00:00 NR -15.84 79.54 2347 2296 _____P________ -1 -15.84 79.54 99 9 238
1861 SI MM 15:00:00 NR -16.10 79.11 2296 2247 _____P________ -1 -16.10 79.11 99 10 238
1861 SI MM 18:00:00 NR -16.39 78.63 2236 2187 _____P________ -1 -16.39 78.63 99 11 237
1861 SI MM 21:00:00 NR -16.72 78.12 2176 2114 _____P________ -1 -16.72 78.12 99 12 236
1861 SI MM 1861-01-25 00:00:00 NR -17.08 77.58 2114 2045 _____P________ -1 -17.08 77.58 99 13 235
1861 SI MM 03:00:00 NR -17.47 77.01 2042 1971 _____P________ -1 -17.47 77.01 99 14 234
1861 SI MM 06:00:00 NR -17.90 76.40 reunion 1971 1888 _____O________ -1 -17.90 76.40 99 9.90 16 233
1861 SI MM 09:00:00 NR -18.42 75.69 1888 1806 _____P________ -1 -18.42 75.69 99 18 232
1861 SI MM 12:00:00 NR -18.99 74.94 1795 1716 _____P________ -1 -18.99 74.94 99 19 232
1861 SI MM 15:00:00 NR -19.58 74.15 1715 1627 _____P________ -1 -19.58 74.15 99 19 231
1861 SI MM 18:00:00 NR -20.18 73.37 1626 1541 _____P________ -1 -20.18 73.37 99 19 231
1861 SI MM 21:00:00 NR -20.76 72.60 1541 1469 _____P________ -1 -20.76 72.60 99 18 231
1861 SI MM 1861-01-26 00:00:00 NR -21.30 71.88 1469 1409 _____P________ -1 -21.30 71.88 99 16 231
1861 SI MM 03:00:00 NR -21.79 71.24 1399 1352 _____P________ -1 -21.79 71.24 99 14 231
1861 SI MM 06:00:00 NR -22.20 70.70 reunion 1352 1325 _____O________ -1 -22.20 70.70 99 9.90 11 231
1861 SI MM 09:00:00 NR -22.48 70.33 1316 1297 _____P________ -1 -22.48 70.33 99 8 230
1861 SI MM 12:00:00 NR -22.69 70.07 1299 1281 _____P________ -1 -22.69 70.07 99 6 229
1861 SI MM 15:00:00 NR -22.85 69.88 1281 1273 _____P________ -1 -22.85 69.88 99 4 226
1861 SI MM 18:00:00 NR -22.96 69.76 1275 1265 _____P________ -1 -22.96 69.76 99 3 223
1861 SI MM 21:00:00 NR -23.04 69.69 1265 1265 _____P________ -1 -23.04 69.69 99 2 216
1861 SI MM 1861-01-27 00:00:00 NR -23.10 69.65 1267 1257 _____P________ -1 -23.10 69.65 99 1 210
1861 SI MM 03:00:00 NR -23.15 69.63 1257 1257 _____P________ -1 -23.15 69.63 99 1 197
1861 SI MM 06:00:00 NR -23.20 69.60 reunion 1260 1260 _____O________ -1 -23.20 69.60 99 9.90 1 212
1861 SI MM 09:00:00 NR -23.26 69.56 1262 1252 _____P________ -1 -23.26 69.56 99 2 216
1861 SI MM 12:00:00 NR -23.33 69.49 1252 1245 _____P________ -1 -23.33 69.49 99 2 220
1861 SI MM 15:00:00 NR -23.41 69.42 1245 1238 _____P________ -1 -23.41 69.42 99 2 222
1861 SI MM 18:00:00 NR -23.50 69.33 1238 1231 _____P________ -1 -23.50 69.33 99 3 223
1861 SI MM 21:00:00 NR -23.60 69.23 1231 1224 _____P________ -1 -23.60 69.23 99 3 225
1861 SI MM 1861-01-28 00:00:00 NR -23.69 69.13 1224 1217 _____P________ -1 -23.69 69.13 99 3 225
1861 SI MM 03:00:00 NR -23.80 69.01 1217 1211 _____P________ -1 -23.80 69.01 99 3 225
1861 SI MM 06:00:00 NR -23.90 68.90 reunion 1211 _____O________ -1 -23.90 68.90 99 9.90 3 226